此METAR来自2022年8月15日 23:00. 最近的
罗盘
风向 的 风向 290° Aérodrome de Castelnaudary-Villeneuve 11/29
风: 2 kt, 1 beaufort

2 kt

改变
0 1.000 2.000 3.000 4.000 5.000
CAVOK
METAR LFBA 152100Z AUTO 29002KT CAVOK 22/15 Q1009

METAR Aérodrome de Castelnaudary-Villeneuve - LFMW

Aérodrome de Castelnaudary-Villeneuve是Castelnaudary Villeneuve,法国中的小机场。 该机场有一条跑道: 11/29. 该领域的国际民航组织标志是LFMW.

这份报告是针对2022年8月15日 23:00, 当地时间在Agen-La Garenne Airport进行的。

机场观察

风向为290°,速度为2 kt。

天气为CAVOK。这意味着在5.000 ft或MSA(最低安全高度)以下(以较高者为准)以下没有云。这也意味着没有观测到积雨云或高耸的积云,可见度为10 km 或者更多或更高。此外,不会有雾,降雨或其他重要天气。

温度和风寒是22 °C。 露点为15 °C,相对湿度为65%。 海平面上的气压为1009 hPa (QNH)。

白天

今天,太阳从07:45升起,在19:41降落。 这适用于Aérodrome de Castelnaudary-Villeneuve,世界夏令时可能有所不同。 当地时间与世界标准时间之间的时差为+2 小时。 夏令时目前正在进行中。

公司介绍

在这个机场,你可以找到飞行俱乐部。 这个机场上的公司有Aéroclub J. Doudies Castelnaudary 和 Aéro-Club des Personnels de l'ENAC de Castelnaudar。

体会

到Vliegles.nl去找飞行课程,跳伞和其他飞行体验。 浏览页面,了解Aérodrome de Castelnaudary-Villeneuve附近所有可用的活动。 你也可以使用搜索功能来寻找你所在地附近的特定飞行课程、跳伞或其他飞行体验。

跑道

Id 标题 侧风 逆风 侧风 %
11/29 110°-290° 2 kt 0 %

逆风成分最大的方向会被突出显示,并用于横风计算。 这并不一定意味着这个方向在使用。

温度 & 天气

温度 22 °C
露点 15 °C
相对湿度 65%
Kp-index 2 (0-9)

白天

日出
07:01
中午
14:02
日落
21:03

小工具

你想在你的网站上有一个关于Aérodrome de Castelnaudary-Villeneuve的当前航空天气(METAR)的小部件吗?

</> 显示HTML代码

我们和第三方通过cookies跟踪您在我们网站上的上网行为。如果您继续,我们认为您同意我们的cookie政策。 了解更多